Terminal Aerodrome Forecast
Issued by NWS Blacksburg, VA

Home | Current Version | Previous Version | Text Only | Print | Product List | Glossary On
Versions: 1 2 3 4 5 6 7 8 9 10 11 12 13 14 15 16 17 18 19 20 21 22 23
000
FTUS41 KRNK 021121
TAFROA
TAF
KROA 021121Z 0212/0312 34004KT P6SM BKN120
     FM021500 31003KT P6SM SCT050 SCT120
     FM021900 30005KT P6SM VCTS BKN045CB
     FM030100 34003KT P6SM BKN120=

USA.gov is the U.S. government's official web portal to all federal, state and local government web resources and services.